Yatahey, NM

4:41 PM MDT on August 28, 2015 (GMT -0600)
Gallup Municipal | | Change Station
CLOSE
Current Station
Airport
Location: Gallup,
Elevation: 6470 ft
Nearby Weather Stations

Elev 6470 ft 35.51 °N, 108.79 °W | Updated 48 minutes ago

Clear
Clear
82 °F
Feels Like 82 °F
N
12
Wind Variable Wind from NNE

Today
High -- | Low -- °F
--% Chance of Precip.
Yesterday
High -- | Low -- °F
Precip. -- in
6:44 AM 7:47 PM
Waxing Gibbous, 99% visible
Pressure 29.79 in
Visibility 10.0 miles
Clouds Few 11000 ft
Dew Point 39 °F
Humidity 22%
Rainfall 0.00 in
Snow Depth Not available.
UV 7 out of 12
Pollen 8.10 out of 12
Air Quality Not available.
Flu Activity Not available.
METAR KGUP 282153Z AUTO 02010KT 10SM FEW110 28/04 A3025 RMK AO2 LTG DSNT SW SLP088 T02780039
Pressure 29.79 in
Visibility 10.0 miles
Clouds Few 11000 ft
Dew Point 39 °F
Humidity 22%
Rainfall 0.00 in
Snow Depth Not available.
UV 7 out of 12
Pollen 8.10 out of 12
Air Quality Not available.
Flu Activity Not available.
METAR KGUP 282153Z AUTO 02010KT 10SM FEW110 28/04 A3025 RMK AO2 LTG DSNT SW SLP088 T02780039

10-Day Weather Forecast

×

Almanac

Astronomy

Aug. 28, 2015 Rise Set
Actual Time
Civil Twilight
Nautical Twilight
Astronomical Twilight
Moon
Length of Visible Light
Length of Day
Tomorrow will be .
, % of the Moon is Illuminated

Today's Extremes

State Highs State Lows

Community

WunderPhotos

Upload Photos

1,850,516 photos uploaded!

WunderBlogs® & News

Nearby

Air Quality

  Air Quality AQ Index Pollutant
Not available.

Snow Depth

Station Depth Elevation

Earthquake Activity

City Distance Mag. Time & Date
Minimum magnitude displayed is 2.5.

Coastal Water Temperatures

Place Temperature

Stations

Nearby Weather Stations

Station Location Temp. Windchill Dew Point Humidity Wind Precip. Elev Updated Type